createdAt,value
2017-12-16T00:01:09.391Z,13.17
2017-12-16T00:03:37.153Z,13.30
2017-12-16T00:06:04.921Z,12.00
2017-12-16T00:08:32.615Z,12.23
2017-12-16T00:11:00.439Z,12.97
2017-12-16T00:13:28.225Z,13.17
2017-12-16T00:15:55.915Z,10.23
2017-12-16T00:18:23.698Z,13.40
2017-12-16T00:20:51.450Z,13.30
2017-12-16T00:23:19.324Z,14.37
2017-12-16T00:25:47.250Z,10.37
2017-12-16T00:28:15.088Z,9.63
2017-12-16T00:30:42.805Z,10.67
2017-12-16T00:33:10.600Z,12.43
2017-12-16T00:35:38.487Z,10.23
2017-12-16T00:38:06.218Z,11.60
2017-12-16T00:40:34.003Z,9.70
2017-12-16T00:43:01.912Z,16.43
2017-12-16T00:45:29.734Z,15.33
2017-12-16T00:47:57.454Z,13.20
2017-12-16T00:50:25.286Z,14.97
2017-12-16T00:52:53.046Z,18.80
2017-12-16T00:55:20.749Z,14.60
2017-12-16T00:57:48.590Z,15.90
2017-12-16T01:00:16.297Z,15.77
2017-12-16T01:02:44.080Z,14.77
2017-12-16T01:05:11.858Z,13.70
2017-12-16T01:07:39.612Z,14.10
2017-12-16T01:10:07.313Z,11.20
2017-12-16T01:12:35.865Z,9.73
2017-12-16T01:15:03.992Z,8.27
2017-12-16T01:17:31.774Z,7.10
2017-12-16T01:19:59.494Z,8.20
2017-12-16T01:22:27.195Z,9.57
2017-12-16T01:24:54.993Z,9.10
2017-12-16T01:27:22.773Z,8.03
2017-12-16T01:29:50.552Z,9.50
2017-12-16T01:32:18.259Z,10.33
2017-12-16T01:34:57.692Z,10.07
2017-12-16T01:37:37.184Z,8.53
2017-12-16T01:40:04.947Z,7.50
2017-12-16T01:42:32.702Z,7.57
2017-12-16T01:45:00.473Z,7.80
2017-12-16T01:47:28.206Z,5.67
2017-12-16T01:49:55.913Z,3.27
2017-12-16T01:52:23.734Z,2.53
2017-12-16T01:54:51.480Z,2.70
2017-12-16T01:57:19.319Z,2.50
2017-12-16T01:59:47.526Z,1.80
2017-12-16T02:02:15.304Z,1.10
2017-12-16T02:04:43.125Z,2.90
2017-12-16T02:07:10.878Z,1.60
2017-12-16T02:09:38.673Z,1.20
2017-12-16T02:12:06.587Z,2.13
2017-12-16T02:14:34.334Z,1.43
2017-12-16T02:17:02.190Z,3.07
2017-12-16T02:19:29.951Z,3.73
2017-12-16T02:21:57.720Z,2.97
2017-12-16T02:24:25.490Z,3.13
2017-12-16T02:26:53.568Z,3.33
2017-12-16T02:29:21.363Z,4.27
2017-12-16T02:31:49.127Z,4.07
2017-12-16T02:34:16.944Z,3.37
2017-12-16T02:36:44.725Z,3.03
2017-12-16T02:39:12.572Z,2.90
2017-12-16T02:41:40.939Z,2.23
2017-12-16T02:44:08.835Z,1.83
2017-12-16T02:46:36.563Z,2.00
2017-12-16T02:49:04.327Z,1.80
2017-12-16T02:51:32.130Z,1.50
2017-12-16T02:53:59.851Z,1.80
2017-12-16T02:56:27.654Z,2.10
2017-12-16T02:58:55.479Z,2.87
2017-12-16T03:01:23.223Z,2.90
2017-12-16T03:03:51.024Z,2.83
2017-12-16T03:06:18.886Z,2.80
2017-12-16T03:08:46.657Z,2.90
2017-12-16T03:11:14.444Z,3.83
2017-12-16T03:13:42.200Z,7.17
2017-12-16T03:16:10.121Z,4.93
2017-12-16T03:18:37.842Z,3.90
2017-12-16T03:21:05.628Z,4.47
2017-12-16T03:23:33.412Z,4.87
2017-12-16T03:26:01.180Z,3.60
2017-12-16T03:28:28.921Z,2.07
2017-12-16T03:30:56.736Z,1.50
2017-12-16T03:33:24.491Z,1.40
2017-12-16T03:35:52.307Z,2.13
2017-12-16T03:38:20.070Z,2.60
2017-12-16T03:40:47.883Z,6.50
2017-12-16T03:43:15.621Z,6.17
2017-12-16T03:45:43.450Z,8.80
2017-12-16T03:48:11.188Z,9.03
2017-12-16T03:50:38.952Z,7.03
2017-12-16T03:53:06.847Z,8.33
2017-12-16T03:55:34.829Z,9.70
2017-12-16T03:58:02.657Z,9.57
2017-12-16T04:00:30.405Z,8.10
2017-12-16T04:02:58.273Z,5.83
2017-12-16T04:05:26.097Z,5.00
2017-12-16T04:07:54.004Z,6.60
2017-12-16T04:10:21.795Z,5.73
2017-12-16T04:12:49.564Z,4.60
2017-12-16T04:15:17.347Z,4.33
2017-12-16T04:17:45.126Z,4.00
2017-12-16T04:20:13.930Z,4.87
2017-12-16T04:22:41.651Z,4.97
2017-12-16T04:25:09.430Z,5.60
2017-12-16T04:27:37.177Z,4.33
2017-12-16T04:30:04.968Z,4.57
2017-12-16T04:32:32.694Z,4.67
2017-12-16T04:35:00.415Z,4.53
2017-12-16T04:37:28.210Z,4.40
2017-12-16T04:39:55.988Z,2.00
2017-12-16T04:42:23.761Z,1.20
2017-12-16T04:44:51.574Z,1.93
2017-12-16T04:47:19.289Z,1.00
2017-12-16T04:49:47.465Z,0.90
2017-12-16T04:52:15.594Z,1.77
2017-12-16T04:54:43.415Z,2.17
2017-12-16T04:57:11.143Z,3.17
2017-12-16T04:59:38.924Z,2.90
2017-12-16T05:02:06.742Z,4.50
2017-12-16T05:04:34.447Z,3.60
2017-12-16T05:07:02.208Z,3.43
2017-12-16T05:09:29.961Z,1.80
2017-12-16T05:11:57.706Z,2.77
2017-12-16T05:14:26.672Z,2.60
2017-12-16T05:16:54.496Z,2.90
2017-12-16T05:19:22.692Z,3.83
2017-12-16T05:21:50.454Z,4.10
2017-12-16T05:24:18.236Z,3.90
2017-12-16T05:26:47.230Z,4.97
2017-12-16T05:29:15.055Z,3.87
2017-12-16T05:31:43.035Z,7.33
2017-12-16T05:34:10.812Z,8.40
2017-12-16T05:36:38.855Z,8.73
2017-12-16T05:39:06.729Z,21.10
2017-12-16T05:41:34.484Z,25.80
2017-12-16T05:44:02.351Z,21.57
2017-12-16T05:46:30.196Z,20.20
2017-12-16T05:48:58.918Z,15.03
2017-12-16T05:51:26.692Z,11.70
2017-12-16T05:53:54.426Z,15.57
2017-12-16T05:56:22.210Z,13.90
2017-12-16T05:58:49.953Z,13.67
2017-12-16T06:01:17.766Z,11.97
2017-12-16T06:03:45.547Z,8.87
2017-12-16T06:06:13.424Z,9.60
2017-12-16T06:08:41.144Z,7.73
2017-12-16T06:11:08.920Z,7.33
2017-12-16T06:13:36.777Z,5.50
2017-12-16T06:16:04.530Z,6.77
2017-12-16T06:18:32.325Z,6.80
2017-12-16T06:21:00.414Z,6.03
2017-12-16T06:23:28.161Z,5.87
2017-12-16T06:25:55.880Z,5.83
2017-12-16T06:28:23.668Z,7.20
2017-12-16T06:30:51.467Z,6.50
2017-12-16T06:33:19.258Z,9.00
2017-12-16T06:35:47.002Z,7.53
2017-12-16T06:38:14.828Z,6.07
2017-12-16T06:40:42.600Z,4.03
2017-12-16T06:43:10.429Z,2.47
2017-12-16T06:45:38.202Z,1.80
2017-12-16T06:48:07.040Z,3.70
2017-12-16T06:50:34.767Z,2.70
2017-12-16T06:53:02.657Z,4.00
2017-12-16T06:55:30.451Z,6.60
2017-12-16T06:57:58.350Z,6.27
2017-12-16T07:00:26.133Z,10.50
2017-12-16T07:02:53.861Z,8.77
2017-12-16T07:05:21.698Z,8.00
2017-12-16T07:07:49.533Z,15.27
2017-12-16T07:10:17.359Z,12.20
2017-12-16T07:12:45.177Z,11.50
2017-12-16T07:15:12.990Z,11.97
2017-12-16T07:17:40.779Z,10.57
2017-12-16T07:20:08.532Z,13.10
2017-12-16T07:22:36.391Z,9.83
2017-12-16T07:25:04.293Z,11.13
2017-12-16T07:27:33.907Z,12.30
2017-12-16T07:30:01.737Z,12.77
2017-12-16T07:32:29.589Z,10.80
2017-12-16T07:34:57.355Z,9.20
2017-12-16T07:37:25.110Z,9.50
2017-12-16T07:39:52.855Z,6.93
2017-12-16T07:42:20.591Z,9.33
2017-12-16T07:44:48.390Z,8.87
2017-12-16T07:47:16.135Z,10.07
2017-12-16T07:49:43.919Z,10.70
2017-12-16T07:52:11.700Z,15.30
2017-12-16T07:54:39.498Z,17.60
2017-12-16T07:57:07.248Z,17.30
2017-12-16T07:59:35.030Z,15.60
2017-12-16T08:02:02.848Z,16.43
2017-12-16T08:04:30.629Z,14.10
2017-12-16T08:06:58.424Z,15.07
2017-12-16T08:09:26.122Z,14.10
2017-12-16T08:11:53.822Z,11.27
2017-12-16T08:14:21.604Z,12.53
2017-12-16T08:16:49.362Z,10.63
2017-12-16T08:19:17.068Z,6.10
2017-12-16T08:21:44.811Z,5.37
2017-12-16T08:24:12.573Z,8.80
2017-12-16T08:26:40.516Z,12.07
2017-12-16T08:29:08.296Z,11.30
2017-12-16T08:31:36.114Z,15.37
2017-12-16T08:34:03.882Z,15.30
2017-12-16T08:36:31.640Z,17.70
2017-12-16T08:38:59.380Z,19.33
2017-12-16T08:41:27.181Z,18.20
2017-12-16T08:43:55.024Z,19.50
2017-12-16T08:46:23.047Z,17.83
2017-12-16T08:48:50.817Z,15.87
2017-12-16T08:51:18.603Z,14.07
2017-12-16T08:53:46.446Z,15.40
2017-12-16T08:56:14.227Z,14.00
2017-12-16T08:58:42.680Z,12.43
2017-12-16T09:01:10.585Z,13.83
2017-12-16T09:03:38.338Z,13.43
2017-12-16T09:06:06.094Z,14.77
2017-12-16T09:08:34.136Z,15.90
2017-12-16T09:11:01.881Z,19.73
2017-12-16T09:13:29.751Z,18.27
2017-12-16T09:15:57.548Z,18.53
2017-12-16T09:18:25.283Z,13.47
2017-12-16T09:20:53.095Z,14.60
2017-12-16T09:23:20.894Z,15.47
2017-12-16T09:25:48.705Z,16.30
2017-12-16T09:28:16.487Z,14.20
2017-12-16T09:30:44.320Z,11.97
2017-12-16T09:33:12.139Z,10.67
2017-12-16T09:35:39.914Z,9.37
2017-12-16T09:38:07.612Z,9.23
2017-12-16T09:40:35.328Z,12.70
2017-12-16T09:43:03.087Z,17.43
2017-12-16T09:45:30.825Z,15.27
2017-12-16T09:47:58.724Z,15.57
2017-12-16T09:50:26.465Z,14.47
2017-12-16T09:52:54.283Z,10.00
2017-12-16T09:55:21.975Z,7.40
2017-12-16T09:57:49.750Z,6.07
2017-12-16T10:00:17.450Z,4.10
2017-12-16T10:02:45.688Z,4.10
2017-12-16T10:05:13.462Z,13.30
2017-12-16T10:07:42.343Z,12.07
2017-12-16T10:10:10.072Z,10.80
2017-12-16T10:12:38.198Z,9.83
2017-12-16T10:15:05.890Z,9.33
2017-12-16T10:17:33.709Z,8.80
2017-12-16T10:20:02.442Z,9.33
2017-12-16T10:22:30.216Z,11.47
2017-12-16T10:24:58.082Z,10.53
2017-12-16T10:27:25.904Z,6.23
2017-12-16T10:29:53.664Z,8.53
2017-12-16T10:32:21.419Z,7.30
2017-12-16T10:34:49.159Z,8.50
2017-12-16T10:37:16.947Z,9.37
2017-12-16T10:39:44.844Z,12.70
2017-12-16T10:42:12.612Z,12.90
2017-12-16T10:44:40.669Z,15.03
2017-12-16T10:47:08.450Z,11.17
2017-12-16T10:49:36.155Z,10.00
2017-12-16T10:52:03.921Z,8.80
2017-12-16T10:54:31.716Z,10.17
2017-12-16T10:56:59.486Z,10.40
2017-12-16T10:59:27.247Z,12.27
2017-12-16T11:01:55.051Z,11.60
2017-12-16T11:04:22.792Z,12.37
2017-12-16T11:06:50.577Z,11.50
2017-12-16T11:09:18.277Z,13.70
2017-12-16T11:11:46.066Z,14.23
2017-12-16T11:14:13.789Z,15.57
2017-12-16T11:16:41.542Z,16.20
2017-12-16T11:19:09.412Z,12.03
2017-12-16T11:21:37.120Z,11.93
2017-12-16T11:24:04.893Z,13.10
2017-12-16T11:26:32.667Z,17.33
2017-12-16T11:29:00.471Z,15.53
2017-12-16T11:31:28.211Z,14.30
2017-12-16T11:33:55.972Z,15.30
2017-12-16T11:36:23.810Z,19.33
2017-12-16T11:38:51.564Z,20.90
2017-12-16T11:41:19.421Z,18.67
2017-12-16T11:43:47.300Z,14.37
2017-12-16T11:46:15.030Z,14.80
2017-12-16T11:48:42.734Z,17.43
2017-12-16T11:51:10.608Z,14.63
2017-12-16T11:53:38.342Z,13.57
2017-12-16T11:56:06.087Z,13.60
2017-12-16T11:58:33.776Z,14.00
2017-12-16T12:01:01.677Z,14.97
2017-12-16T12:03:29.433Z,12.03
2017-12-16T12:05:57.271Z,11.27
2017-12-16T12:08:24.979Z,11.90
2017-12-16T12:10:52.792Z,12.63
2017-12-16T12:13:20.688Z,12.13
2017-12-16T12:15:48.378Z,12.90
2017-12-16T12:18:16.118Z,12.13
2017-12-16T12:20:43.984Z,14.03
2017-12-16T12:23:11.740Z,13.97
2017-12-16T12:25:39.600Z,8.80
2017-12-16T12:28:08.550Z,8.60
2017-12-16T12:30:36.259Z,9.67
2017-12-16T12:33:04.110Z,9.43
2017-12-16T12:35:31.956Z,10.20
2017-12-16T12:37:59.956Z,9.10
2017-12-16T12:40:27.732Z,12.90
2017-12-16T12:42:55.429Z,12.80
2017-12-16T12:45:23.192Z,14.40
2017-12-16T12:47:50.919Z,7.87
2017-12-16T12:50:18.713Z,5.50
2017-12-16T12:52:46.493Z,6.50
2017-12-16T12:55:14.233Z,6.87
2017-12-16T12:57:42.028Z,6.53
2017-12-16T13:00:09.901Z,6.57
2017-12-16T13:02:37.622Z,5.60
2017-12-16T13:05:05.428Z,5.20
2017-12-16T13:07:33.627Z,4.13
2017-12-16T13:10:01.720Z,3.40
2017-12-16T13:12:29.673Z,6.13
2017-12-16T13:14:57.449Z,3.40
2017-12-16T13:17:25.905Z,4.73
2017-12-16T13:19:53.666Z,4.73
2017-12-16T13:22:21.527Z,5.80
2017-12-16T13:24:49.298Z,5.90
2017-12-16T13:27:17.114Z,6.63
2017-12-16T13:29:45.147Z,7.27
2017-12-16T13:32:12.922Z,7.20
2017-12-16T13:34:40.896Z,6.70
2017-12-16T13:37:08.960Z,10.20
2017-12-16T13:39:36.812Z,8.13
2017-12-16T13:42:04.616Z,7.20
2017-12-16T13:44:32.513Z,7.50
2017-12-16T13:47:00.281Z,7.70
2017-12-16T13:49:28.063Z,9.00
2017-12-16T13:51:55.769Z,9.10
2017-12-16T13:54:23.526Z,11.60
2017-12-16T13:56:51.427Z,7.07
2017-12-16T13:59:19.261Z,5.83
2017-12-16T14:01:47.055Z,5.50
2017-12-16T14:04:14.735Z,4.23
2017-12-16T14:06:44.177Z,3.30
2017-12-16T14:09:12.113Z,3.50
2017-12-16T14:11:39.812Z,4.10
2017-12-16T14:14:07.710Z,5.03
2017-12-16T14:16:35.402Z,4.40
2017-12-16T14:19:03.136Z,4.40
2017-12-16T14:21:30.901Z,11.20
2017-12-16T14:23:58.646Z,9.80
2017-12-16T14:26:27.223Z,11.33
2017-12-16T14:28:54.992Z,11.50
2017-12-16T14:31:22.762Z,7.90
2017-12-16T14:33:50.797Z,8.90
2017-12-16T14:36:19.076Z,7.17
2017-12-16T14:38:46.881Z,8.70
2017-12-16T14:41:14.615Z,8.80
2017-12-16T14:43:42.412Z,8.57
2017-12-16T14:46:10.259Z,9.90
2017-12-16T14:48:38.015Z,10.27
2017-12-16T14:51:05.813Z,8.03
2017-12-16T14:53:33.630Z,9.17
2017-12-16T14:56:01.388Z,8.87
2017-12-16T14:58:29.147Z,7.77
2017-12-16T15:00:56.872Z,8.27
2017-12-16T15:03:24.638Z,9.63
2017-12-16T15:05:52.432Z,11.07
2017-12-16T15:08:20.186Z,11.73
2017-12-16T15:10:47.944Z,11.63
2017-12-16T15:13:15.691Z,15.23
2017-12-16T15:15:43.558Z,15.27
2017-12-16T15:18:11.319Z,13.67
2017-12-16T15:20:39.092Z,15.47
2017-12-16T15:23:06.892Z,13.23
2017-12-16T15:25:34.639Z,11.90
2017-12-16T15:28:02.400Z,11.90
2017-12-16T15:30:30.428Z,10.47
2017-12-16T15:32:58.457Z,12.30
2017-12-16T15:35:26.274Z,11.30
2017-12-16T15:37:54.076Z,12.00
2017-12-16T15:40:21.911Z,11.30
2017-12-16T15:42:49.936Z,11.73
2017-12-16T15:45:18.309Z,11.50
2017-12-16T15:47:46.189Z,10.77
2017-12-16T15:50:14.094Z,10.97
2017-12-16T15:52:41.816Z,10.47
2017-12-16T15:55:09.611Z,12.90
2017-12-16T15:57:37.432Z,11.07
2017-12-16T16:00:05.263Z,11.50
2017-12-16T16:02:33.059Z,11.83
2017-12-16T16:05:00.855Z,15.20
2017-12-16T16:07:28.738Z,17.70
2017-12-16T16:09:57.034Z,21.63
2017-12-16T16:12:24.972Z,15.20
2017-12-16T16:14:52.971Z,5.93
2017-12-16T16:17:20.987Z,6.00
2017-12-16T16:19:48.968Z,4.93
2017-12-16T16:22:16.675Z,10.37
2017-12-16T16:24:44.461Z,15.60
2017-12-16T16:27:12.260Z,16.37
2017-12-16T16:29:39.990Z,14.03
2017-12-16T16:32:07.847Z,11.63
2017-12-16T16:34:35.626Z,11.93
2017-12-16T16:37:03.405Z,9.97
2017-12-16T16:39:31.166Z,13.60
2017-12-16T16:41:58.919Z,10.43
2017-12-16T16:44:26.635Z,9.17
2017-12-16T16:46:54.396Z,9.87
2017-12-16T16:49:22.180Z,6.80
2017-12-16T16:51:49.898Z,7.53
2017-12-16T16:54:17.698Z,8.50
2017-12-16T16:56:45.400Z,8.70
2017-12-16T16:59:13.113Z,10.87
2017-12-16T17:01:40.883Z,9.67
2017-12-16T17:04:08.692Z,10.70
2017-12-16T17:06:37.576Z,11.70
2017-12-16T17:09:06.082Z,12.50
2017-12-16T17:11:34.954Z,20.17
2017-12-16T17:14:03.996Z,23.93
2017-12-16T17:16:31.734Z,16.40
2017-12-16T17:18:59.856Z,12.80
2017-12-16T17:21:28.623Z,10.57
2017-12-16T17:23:56.481Z,15.30
2017-12-16T17:26:24.522Z,14.07
2017-12-16T17:28:52.355Z,15.90
2017-12-16T17:31:20.424Z,14.37
2017-12-16T17:33:48.824Z,16.67
2017-12-16T17:36:16.825Z,11.73
2017-12-16T17:38:47.813Z,10.70
2017-12-16T17:41:16.048Z,10.10
2017-12-16T17:43:44.049Z,8.03
2017-12-16T17:46:12.017Z,6.13
2017-12-16T17:48:41.214Z,7.20
2017-12-16T17:51:09.405Z,8.23
2017-12-16T17:53:37.267Z,8.20
2017-12-16T17:56:04.980Z,7.70
2017-12-16T17:58:32.747Z,9.23
2017-12-16T18:01:01.326Z,8.10
2017-12-16T18:03:29.461Z,8.57
2017-12-16T18:05:57.318Z,10.53
2017-12-16T18:08:25.113Z,11.83
2017-12-16T18:10:52.866Z,13.70
2017-12-16T18:13:20.675Z,12.57
2017-12-16T18:15:48.457Z,15.20
2017-12-16T18:18:16.207Z,12.20
2017-12-16T18:20:44.093Z,9.93
2017-12-16T18:23:11.992Z,11.07
2017-12-16T18:25:39.783Z,7.63
2017-12-16T18:28:08.670Z,8.23
2017-12-16T18:30:36.481Z,3.50
2017-12-16T18:33:04.295Z,2.40
2017-12-16T18:35:32.139Z,4.90
2017-12-16T18:37:59.978Z,7.03
2017-12-16T18:40:27.760Z,10.90
2017-12-16T18:42:56.796Z,9.80
2017-12-16T18:45:24.649Z,7.50
2017-12-16T18:47:52.352Z,6.60
2017-12-16T18:50:20.115Z,3.20
2017-12-16T18:52:47.874Z,5.30
2017-12-16T18:55:15.889Z,6.80
2017-12-16T18:57:43.743Z,4.80
2017-12-16T19:00:11.761Z,4.13
2017-12-16T19:02:39.738Z,7.03
2017-12-16T19:05:07.508Z,7.97
2017-12-16T19:07:35.441Z,6.40
2017-12-16T19:10:03.783Z,5.90
2017-12-16T19:12:31.565Z,3.60
2017-12-16T19:14:59.360Z,2.83
2017-12-16T19:17:27.134Z,5.17
2017-12-16T19:19:55.103Z,5.40
2017-12-16T19:22:22.893Z,6.50
2017-12-16T19:24:50.650Z,5.33
2017-12-16T19:27:18.429Z,7.03
2017-12-16T19:29:47.058Z,6.70
2017-12-16T19:32:14.974Z,9.37
2017-12-16T19:34:43.091Z,7.60
2017-12-16T19:37:11.008Z,6.37
2017-12-16T19:39:38.993Z,7.17
2017-12-16T19:42:06.855Z,7.87
2017-12-16T19:44:34.696Z,8.17
2017-12-16T19:47:02.586Z,6.53
2017-12-16T19:49:30.314Z,6.77
2017-12-16T19:51:58.297Z,6.60
2017-12-16T19:54:26.062Z,6.67
2017-12-16T19:56:53.982Z,7.90
2017-12-16T19:59:21.850Z,9.33
2017-12-16T20:01:49.640Z,10.23
2017-12-16T20:04:17.426Z,12.90
2017-12-16T20:06:45.298Z,11.07
2017-12-16T20:09:13.104Z,10.10
2017-12-16T20:11:40.880Z,8.57
2017-12-16T20:14:09.012Z,7.70
2017-12-16T20:16:36.872Z,8.90
2017-12-16T20:19:04.760Z,8.70
2017-12-16T20:21:32.550Z,7.77
2017-12-16T20:24:00.306Z,7.90
2017-12-16T20:26:28.318Z,6.20
2017-12-16T20:28:56.155Z,7.03
2017-12-16T20:31:23.923Z,6.10
2017-12-16T20:33:51.828Z,7.20
2017-12-16T20:36:20.028Z,7.57
2017-12-16T20:38:48.104Z,7.83
2017-12-16T20:41:16.950Z,6.83
2017-12-16T20:43:44.687Z,6.33
2017-12-16T20:46:13.253Z,6.20
2017-12-16T20:48:41.140Z,5.43
2017-12-16T20:51:10.159Z,6.20
2017-12-16T20:53:38.049Z,4.60
2017-12-16T20:56:05.972Z,4.57
2017-12-16T20:58:34.024Z,4.73
2017-12-16T21:01:02.024Z,3.27
2017-12-16T21:03:29.806Z,3.07
2017-12-16T21:05:57.737Z,3.23
2017-12-16T21:08:25.493Z,3.27
2017-12-16T21:10:53.544Z,3.97
2017-12-16T21:13:21.349Z,3.63
2017-12-16T21:15:49.199Z,4.77
2017-12-16T21:18:16.900Z,4.30
2017-12-16T21:20:44.653Z,3.67
2017-12-16T21:23:13.169Z,3.67
2017-12-16T21:25:41.918Z,2.03
2017-12-16T21:28:09.634Z,3.17
2017-12-16T21:30:37.373Z,3.37
2017-12-16T21:33:06.270Z,3.60
2017-12-16T21:35:34.205Z,3.20
2017-12-16T21:38:02.024Z,2.53
2017-12-16T21:40:30.493Z,3.47
2017-12-16T21:42:58.326Z,2.70
2017-12-16T21:45:29.079Z,2.40
2017-12-16T21:50:31.778Z,2.63
2017-12-16T21:52:59.561Z,2.53
2017-12-16T21:55:27.366Z,2.20
2017-12-16T21:57:55.320Z,2.40
2017-12-16T22:00:23.054Z,2.40
2017-12-16T22:02:50.815Z,1.83
2017-12-16T22:05:18.641Z,2.30
2017-12-16T22:07:46.351Z,1.63
2017-12-16T22:10:14.085Z,2.40
2017-12-16T22:12:41.761Z,1.90
2017-12-16T22:15:09.566Z,2.57
2017-12-16T22:17:37.377Z,1.87
2017-12-16T22:20:05.097Z,2.10
2017-12-16T22:22:32.811Z,2.70
2017-12-16T22:25:00.539Z,2.50
2017-12-16T22:27:29.007Z,2.33
2017-12-16T22:29:56.744Z,2.70
2017-12-16T22:32:24.514Z,2.83
2017-12-16T22:34:52.302Z,2.53
2017-12-16T22:37:20.175Z,2.30
2017-12-16T22:39:47.941Z,2.00
2017-12-16T22:42:15.727Z,2.30
2017-12-16T22:44:43.512Z,2.53
2017-12-16T22:47:11.242Z,2.73
2017-12-16T22:49:39.101Z,3.00
2017-12-16T22:52:06.825Z,3.00
2017-12-16T22:54:34.590Z,3.33
2017-12-16T22:57:02.823Z,3.50
2017-12-16T22:59:30.591Z,3.43
2017-12-16T23:01:58.436Z,3.33
2017-12-16T23:04:26.280Z,3.10
2017-12-16T23:06:54.820Z,2.77
2017-12-16T23:09:22.580Z,2.80
2017-12-16T23:11:50.331Z,3.00
2017-12-16T23:14:18.100Z,3.70
2017-12-16T23:16:45.889Z,3.73
2017-12-16T23:19:13.631Z,3.50
2017-12-16T23:21:41.354Z,3.33
2017-12-16T23:24:09.155Z,2.70
2017-12-16T23:26:37.003Z,3.97
2017-12-16T23:29:04.802Z,3.20
2017-12-16T23:31:32.539Z,3.67
2017-12-16T23:34:00.462Z,3.00
2017-12-16T23:36:28.212Z,2.60
2017-12-16T23:38:55.903Z,2.90
2017-12-16T23:41:23.758Z,2.50
2017-12-16T23:43:51.490Z,2.23
2017-12-16T23:46:19.193Z,2.60
2017-12-16T23:48:47.025Z,2.47
2017-12-16T23:51:14.811Z,4.17
2017-12-16T23:53:42.559Z,2.40
2017-12-16T23:56:10.335Z,3.07
2017-12-16T23:58:38.146Z,3.70
